Time;durP1;ratioP1;P1;durP2;ratioP2;P2;SDS_P1;SDS_P2;PMS_P1;PMS_P2;Temp;Humidity;BMP_temperature;BMP_pressure;BME280_temperature;BME280_humidity;BME280_pressure;Samples;Min_cycle;Max_cycle;Signal;HPM_P1;HPM_P2
2021/07/29 00:00:16;;;;;;;5.15;4.30;;;;;;;;;;4948411;28;20019;-64
2021/07/29 00:02:42;;;;;;;5.35;4.47;;;;;;;;;;4974579;28;20280;-64
2021/07/29 00:05:07;;;;;;;3.50;3.20;;;;;;;;;;4974109;28;20058;-64
2021/07/29 00:07:32;;;;;;;3.53;3.30;;;;;;;;;;4974514;28;20121;-64
2021/07/29 00:09:57;;;;;;;4.65;3.05;;;;;;;;;;4974519;28;20344;-64
2021/07/29 00:12:23;;;;;;;2.97;2.78;;;;;;;;;;4974663;28;20023;-64
2021/07/29 00:14:50;;;;;;;3.72;3.35;;;;;;;;;;4974275;28;20130;-64
2021/07/29 00:17:29;;;;;;;4.25;3.33;;;;;;;;;;4974667;28;20078;-64
2021/07/29 00:19:55;;;;;;;3.67;3.13;;;;;;;;;;4972000;28;20027;-65
2021/07/29 00:22:20;;;;;;;3.97;3.60;;;;;;;;;;4972259;28;20253;-63
2021/07/29 00:24:45;;;;;;;3.80;3.50;;;;;;;;;;4970647;28;20030;-65
2021/07/29 00:27:11;;;;;;;3.35;3.13;;;;;;;;;;4970256;28;20030;-63
2021/07/29 00:29:36;;;;;;;3.47;3.15;;;;;;;;;;4970454;28;20006;-63
2021/07/29 00:32:03;;;;;;;3.22;2.95;;;;;;;;;;4953870;28;20030;-63
2021/07/29 00:34:28;;;;;;;3.90;3.50;;;;;;;;;;4970480;28;20089;-63
2021/07/29 00:36:54;;;;;;;3.70;3.33;;;;;;;;;;4970095;28;20854;-63
2021/07/29 00:39:19;;;;;;;5.20;3.42;;;;;;;;;;4971869;28;20551;-63
2021/07/29 00:41:47;;;;;;;3.90;3.35;;;;;;;;;;4971548;28;20063;-64
2021/07/29 00:44:12;;;;;;;2.95;2.67;;;;;;;;;;4972387;28;20035;-64
2021/07/29 00:46:37;;;;;;;4.53;3.38;;;;;;;;;;4973259;28;20105;-65
2021/07/29 00:49:03;;;;;;;2.97;2.78;;;;;;;;;;4973909;28;20029;-64
2021/07/29 00:51:29;;;;;;;3.20;2.90;;;;;;;;;;4973475;28;20199;-64
2021/07/29 00:53:55;;;;;;;3.25;2.97;;;;;;;;;;4973819;28;20358;-64
2021/07/29 00:56:20;;;;;;;3.95;3.65;;;;;;;;;;4971668;28;20038;-64
2021/07/29 00:58:45;;;;;;;3.83;3.53;;;;;;;;;;4956390;28;20050;-64
2021/07/29 01:01:11;;;;;;;3.47;3.13;;;;;;;;;;4961407;28;20031;-64
2021/07/29 01:03:36;;;;;;;3.70;3.40;;;;;;;;;;4962330;28;20065;-64
2021/07/29 01:06:01;;;;;;;4.10;3.78;;;;;;;;;;4959085;28;20031;-65
2021/07/29 01:08:26;;;;;;;4.45;3.85;;;;;;;;;;4958349;28;20389;-63
2021/07/29 01:10:52;;;;;;;4.43;4.00;;;;;;;;;;4952936;28;20360;-63
2021/07/29 01:13:17;;;;;;;4.85;4.03;;;;;;;;;;4961310;28;20026;-63
2021/07/29 01:15:42;;;;;;;5.80;4.00;;;;;;;;;;4958914;28;20027;-63
2021/07/29 01:18:07;;;;;;;4.75;4.10;;;;;;;;;;4959800;28;20037;-63
2021/07/29 01:20:33;;;;;;;4.65;4.13;;;;;;;;;;4959297;28;20272;-64
2021/07/29 01:22:58;;;;;;;4.57;4.15;;;;;;;;;;4959403;28;20028;-64
2021/07/29 01:25:23;;;;;;;4.93;3.75;;;;;;;;;;4961092;28;20122;-64
2021/07/29 01:27:48;;;;;;;4.55;4.15;;;;;;;;;;4961643;28;20062;-64
2021/07/29 01:30:14;;;;;;;4.35;3.97;;;;;;;;;;4959345;28;20026;-64
2021/07/29 01:32:40;;;;;;;3.28;3.03;;;;;;;;;;4960269;28;20313;-64
2021/07/29 01:35:08;;;;;;;4.50;3.75;;;;;;;;;;4960961;28;20033;-63
2021/07/29 01:37:33;;;;;;;3.65;3.33;;;;;;;;;;4961904;28;20018;-64
2021/07/29 01:39:59;;;;;;;4.03;3.72;;;;;;;;;;4961493;28;20034;-64
2021/07/29 01:42:24;;;;;;;4.90;4.50;;;;;;;;;;4950168;28;20029;-64
2021/07/29 01:44:49;;;;;;;4.53;4.22;;;;;;;;;;4961584;28;20118;-63
2021/07/29 01:47:14;;;;;;;5.47;4.40;;;;;;;;;;4963887;28;20067;-63
2021/07/29 01:49:40;;;;;;;4.93;4.50;;;;;;;;;;4966745;28;20026;-64
2021/07/29 01:52:05;;;;;;;3.75;3.50;;;;;;;;;;4965497;28;20106;-63
2021/07/29 01:54:30;;;;;;;3.38;3.08;;;;;;;;;;4967806;28;20049;-63
2021/07/29 01:56:55;;;;;;;3.67;3.38;;;;;;;;;;4964385;28;20026;-64
2021/07/29 01:59:21;;;;;;;4.40;3.38;;;;;;;;;;4979799;28;20315;-64
2021/07/29 02:01:46;;;;;;;11.50;3.85;;;;;;;;;;4984889;28;20145;-63
2021/07/29 02:04:12;;;;;;;4.28;3.65;;;;;;;;;;4984099;28;20045;-63
2021/07/29 02:06:37;;;;;;;3.40;3.20;;;;;;;;;;4984970;28;20066;-64
2021/07/29 02:09:03;;;;;;;4.25;3.70;;;;;;;;;;4984021;28;20022;-64
2021/07/29 02:11:31;;;;;;;3.67;3.38;;;;;;;;;;4985649;28;20050;-63
2021/07/29 02:13:57;;;;;;;3.95;3.55;;;;;;;;;;4986987;28;20113;-63
2021/07/29 02:16:22;;;;;;;3.55;3.08;;;;;;;;;;4984683;28;20571;-63
2021/07/29 02:18:47;;;;;;;3.25;3.05;;;;;;;;;;4984449;28;20031;-63
2021/07/29 02:21:13;;;;;;;3.03;2.83;;;;;;;;;;4987490;28;20026;-63
2021/07/29 02:23:38;;;;;;;2.80;2.60;;;;;;;;;;4985388;28;20661;-63
2021/07/29 02:26:03;;;;;;;4.05;3.33;;;;;;;;;;4986461;28;20030;-63
2021/07/29 02:28:28;;;;;;;3.92;3.63;;;;;;;;;;4985728;28;20169;-64
2021/07/29 02:30:55;;;;;;;4.07;3.47;;;;;;;;;;4985022;28;20022;-63
2021/07/29 02:33:20;;;;;;;2.80;2.60;;;;;;;;;;4965751;28;20038;-63
2021/07/29 02:35:49;;;;;;;3.15;2.95;;;;;;;;;;4981940;28;20031;-63
2021/07/29 02:38:14;;;;;;;3.40;3.20;;;;;;;;;;4965106;28;20481;-64
2021/07/29 02:40:39;;;;;;;2.78;2.58;;;;;;;;;;4983310;28;20034;-63
2021/07/29 02:43:04;;;;;;;3.05;2.85;;;;;;;;;;4983821;28;20022;-64
2021/07/29 02:45:30;;;;;;;3.20;2.95;;;;;;;;;;4982718;28;20034;-64
2021/07/29 02:47:55;;;;;;;2.90;2.70;;;;;;;;;;4981142;28;20339;-63
2021/07/29 02:50:20;;;;;;;3.17;2.90;;;;;;;;;;4981778;28;20037;-63
2021/07/29 02:52:46;;;;;;;3.33;3.08;;;;;;;;;;4980596;28;20038;-63
2021/07/29 02:55:11;;;;;;;2.92;2.72;;;;;;;;;;4982859;28;20030;-64
2021/07/29 02:57:36;;;;;;;3.35;2.80;;;;;;;;;;4981891;28;20164;-63
2021/07/29 03:00:02;;;;;;;3.63;3.30;;;;;;;;;;4981504;28;20161;-63
2021/07/29 03:02:28;;;;;;;3.03;2.80;;;;;;;;;;4981608;28;20030;-64
2021/07/29 03:04:53;;;;;;;2.92;2.72;;;;;;;;;;4982530;28;20100;-63
2021/07/29 03:07:18;;;;;;;2.60;2.40;;;;;;;;;;4982096;28;20059;-63
2021/07/29 03:09:43;;;;;;;3.15;2.90;;;;;;;;;;4982896;28;20018;-64
2021/07/29 03:12:09;;;;;;;2.97;2.70;;;;;;;;;;4981684;28;20026;-64
2021/07/29 03:14:34;;;;;;;3.15;2.90;;;;;;;;;;4965817;28;20089;-63
2021/07/29 03:16:59;;;;;;;3.28;2.97;;;;;;;;;;4981723;28;20077;-64
2021/07/29 03:19:24;;;;;;;3.28;3.08;;;;;;;;;;4980671;28;20092;-64
2021/07/29 03:21:50;;;;;;;3.03;2.83;;;;;;;;;;4983366;28;20040;-64
2021/07/29 03:24:15;;;;;;;2.90;2.70;;;;;;;;;;4982729;28;20030;-64
2021/07/29 03:26:40;;;;;;;3.55;3.25;;;;;;;;;;4982933;28;20022;-63
2021/07/29 03:29:05;;;;;;;3.00;2.58;;;;;;;;;;4979416;28;20038;-64
2021/07/29 03:31:30;;;;;;;2.70;2.50;;;;;;;;;;4981054;28;20415;-64
2021/07/29 03:33:56;;;;;;;3.20;2.90;;;;;;;;;;4981578;28;20337;-64
2021/07/29 03:36:21;;;;;;;2.95;2.78;;;;;;;;;;4982307;28;20086;-64
2021/07/29 03:38:47;;;;;;;3.22;2.92;;;;;;;;;;4982674;28;20026;-64
2021/07/29 03:41:12;;;;;;;2.95;2.75;;;;;;;;;;4983634;28;20034;-64
2021/07/29 03:43:37;;;;;;;3.00;2.80;;;;;;;;;;4986514;28;20041;-64
2021/07/29 03:46:03;;;;;;;3.35;3.05;;;;;;;;;;4976046;28;20035;-64
2021/07/29 03:48:28;;;;;;;3.20;3.00;;;;;;;;;;4983674;28;20058;-64
2021/07/29 03:50:53;;;;;;;3.55;3.25;;;;;;;;;;4983178;28;20117;-64
2021/07/29 03:53:18;;;;;;;3.40;2.65;;;;;;;;;;4983763;28;20042;-64
2021/07/29 03:55:46;;;;;;;3.60;3.17;;;;;;;;;;4981272;28;20038;-65
2021/07/29 03:58:11;;;;;;;5.13;3.80;;;;;;;;;;4983503;28;20054;-64
2021/07/29 04:00:36;;;;;;;3.60;3.30;;;;;;;;;;4983112;28;20034;-64
2021/07/29 04:03:01;;;;;;;4.20;3.63;;;;;;;;;;4975322;28;20057;-64
2021/07/29 04:05:27;;;;;;;3.72;3.42;;;;;;;;;;4985126;28;20066;-65
2021/07/29 04:07:52;;;;;;;3.75;3.45;;;;;;;;;;4982780;28;20055;-64
2021/07/29 04:10:17;;;;;;;4.32;3.95;;;;;;;;;;4983909;28;20391;-64
2021/07/29 04:12:42;;;;;;;3.42;3.22;;;;;;;;;;4983642;28;20027;-64
2021/07/29 04:15:08;;;;;;;4.10;3.55;;;;;;;;;;4983072;28;20250;-64
2021/07/29 04:17:33;;;;;;;4.63;4.22;;;;;;;;;;4983524;28;20117;-64
2021/07/29 04:19:59;;;;;;;3.85;3.55;;;;;;;;;;4983401;28;20120;-64
2021/07/29 04:22:25;;;;;;;4.10;3.47;;;;;;;;;;4982579;28;20025;-64
2021/07/29 04:24:52;;;;;;;4.40;4.10;;;;;;;;;;4981500;28;20599;-63
2021/07/29 04:27:18;;;;;;;4.65;4.05;;;;;;;;;;4984026;28;20284;-65
2021/07/29 04:29:43;;;;;;;3.75;3.45;;;;;;;;;;4981208;28;20027;-65
2021/07/29 04:32:08;;;;;;;4.25;3.90;;;;;;;;;;4982385;28;20030;-64
2021/07/29 04:34:33;;;;;;;4.13;3.70;;;;;;;;;;4983638;28;20030;-65
2021/07/29 04:36:59;;;;;;;4.88;3.80;;;;;;;;;;4981589;28;20319;-64
2021/07/29 04:39:27;;;;;;;6.25;3.97;;;;;;;;;;4985583;28;20026;-65
2021/07/29 04:41:52;;;;;;;4.45;4.15;;;;;;;;;;4981085;28;20038;-65
2021/07/29 04:44:17;;;;;;;3.42;3.13;;;;;;;;;;4984492;28;20022;-64
2021/07/29 04:46:43;;;;;;;4.97;4.18;;;;;;;;;;4983692;28;20022;-64
2021/07/29 04:49:10;;;;;;;3.92;3.63;;;;;;;;;;4969504;28;20081;-65
2021/07/29 04:51:35;;;;;;;4.93;3.78;;;;;;;;;;4967074;28;20375;-64
2021/07/29 04:54:01;;;;;;;4.20;3.90;;;;;;;;;;4982572;28;20057;-63
2021/07/29 04:56:26;;;;;;;5.00;4.60;;;;;;;;;;4982231;28;20125;-65
2021/07/29 04:58:52;;;;;;;3.60;3.30;;;;;;;;;;4982507;28;20735;-64
2021/07/29 05:01:17;;;;;;;4.15;3.83;;;;;;;;;;4964409;28;20137;-64
2021/07/29 05:03:43;;;;;;;4.38;3.97;;;;;;;;;;4983041;28;20061;-64
2021/07/29 05:06:08;;;;;;;5.13;4.25;;;;;;;;;;4981906;28;20030;-65
2021/07/29 05:08:35;;;;;;;7.07;4.07;;;;;;;;;;4984105;28;20069;-64
2021/07/29 05:11:01;;;;;;;4.38;3.78;;;;;;;;;;4983937;28;20050;-66
2021/07/29 05:13:26;;;;;;;3.50;3.20;;;;;;;;;;4981038;28;20068;-65
2021/07/29 05:15:51;;;;;;;4.43;4.03;;;;;;;;;;4982863;28;20113;-65
2021/07/29 05:18:17;;;;;;;3.25;3.05;;;;;;;;;;4983106;28;20062;-65
2021/07/29 05:20:42;;;;;;;3.08;2.83;;;;;;;;;;4983025;28;20027;-65
2021/07/29 05:23:07;;;;;;;3.25;2.90;;;;;;;;;;4982548;28;20609;-65
2021/07/29 05:25:35;;;;;;;6.30;3.50;;;;;;;;;;4981942;28;20128;-65
2021/07/29 05:28:00;;;;;;;3.03;2.60;;;;;;;;;;4978916;28;20038;-66
2021/07/29 05:30:25;;;;;;;3.38;2.45;;;;;;;;;;4977741;28;20023;-65
2021/07/29 05:32:50;;;;;;;3.30;3.00;;;;;;;;;;4977713;28;20026;-65
2021/07/29 05:35:16;;;;;;;6.90;3.58;;;;;;;;;;4978565;28;20025;-65
2021/07/29 05:37:41;;;;;;;3.45;2.75;;;;;;;;;;4984012;28;20030;-65
2021/07/29 05:40:07;;;;;;;4.90;3.45;;;;;;;;;;4980299;28;20065;-65
2021/07/29 05:42:32;;;;;;;3.33;3.00;;;;;;;;;;4979973;28;20046;-64
2021/07/29 05:44:58;;;;;;;3.92;2.63;;;;;;;;;;4980473;28;20090;-65
2021/07/29 05:47:23;;;;;;;3.70;2.53;;;;;;;;;;4982683;28;20035;-65
2021/07/29 05:49:48;;;;;;;3.85;3.53;;;;;;;;;;4980414;28;20034;-64
2021/07/29 05:52:13;;;;;;;3.13;2.50;;;;;;;;;;4981233;28;20023;-64
2021/07/29 05:54:39;;;;;;;2.33;2.22;;;;;;;;;;4982183;28;20486;-65
2021/07/29 05:57:04;;;;;;;2.78;2.55;;;;;;;;;;4982374;28;20058;-65
2021/07/29 05:59:29;;;;;;;2.67;2.47;;;;;;;;;;4983246;28;20063;-65
2021/07/29 06:01:54;;;;;;;2.97;2.78;;;;;;;;;;4983297;28;20077;-65
2021/07/29 06:04:20;;;;;;;3.17;2.88;;;;;;;;;;4985068;28;20022;-65
2021/07/29 06:06:45;;;;;;;2.83;2.63;;;;;;;;;;4984618;28;20019;-65
2021/07/29 06:09:10;;;;;;;2.35;2.25;;;;;;;;;;4982971;28;20117;-65
2021/07/29 06:11:35;;;;;;;2.40;2.20;;;;;;;;;;4981884;28;20092;-65
2021/07/29 06:14:01;;;;;;;3.78;2.72;;;;;;;;;;4981649;28;20042;-65
2021/07/29 06:16:26;;;;;;;2.85;2.17;;;;;;;;;;4981371;28;20037;-66
2021/07/29 06:19:05;;;;;;;2.95;2.75;;;;;;;;;;4980675;28;20038;-65
2021/07/29 06:21:33;;;;;;;3.47;2.67;;;;;;;;;;4981620;28;20027;-65
2021/07/29 06:23:58;;;;;;;3.17;2.97;;;;;;;;;;4979318;28;20145;-65
2021/07/29 06:26:24;;;;;;;2.40;2.30;;;;;;;;;;4983607;28;20113;-65
2021/07/29 06:28:49;;;;;;;2.38;2.08;;;;;;;;;;4981889;28;20035;-65
2021/07/29 06:31:14;;;;;;;2.75;2.55;;;;;;;;;;4979366;28;20023;-65
2021/07/29 06:33:39;;;;;;;2.30;2.13;;;;;;;;;;4982501;28;20092;-65
2021/07/29 06:36:05;;;;;;;2.45;2.25;;;;;;;;;;4985285;28;20085;-65
2021/07/29 06:38:30;;;;;;;2.70;2.50;;;;;;;;;;4984892;28;20034;-65
2021/07/29 06:40:55;;;;;;;2.47;2.35;;;;;;;;;;4983485;28;20125;-65
2021/07/29 06:43:21;;;;;;;2.80;2.60;;;;;;;;;;4984262;28;20023;-65
2021/07/29 06:45:46;;;;;;;2.42;2.30;;;;;;;;;;4982686;28;20957;-65
2021/07/29 06:48:11;;;;;;;2.30;2.20;;;;;;;;;;4984338;28;20320;-65
2021/07/29 06:50:36;;;;;;;2.53;2.33;;;;;;;;;;4973083;28;20124;-65
2021/07/29 06:53:02;;;;;;;2.38;2.17;;;;;;;;;;4981184;28;20406;-65
2021/07/29 06:55:27;;;;;;;4.40;2.35;;;;;;;;;;4980726;28;20038;-65
2021/07/29 06:57:52;;;;;;;2.00;1.90;;;;;;;;;;4981804;28;20062;-66
2021/07/29 07:00:20;;;;;;;2.58;2.30;;;;;;;;;;4982933;28;20046;-65
2021/07/29 07:02:45;;;;;;;2.63;2.42;;;;;;;;;;4965541;28;20407;-65
2021/07/29 07:05:10;;;;;;;2.30;2.20;;;;;;;;;;4982602;28;20031;-65
2021/07/29 07:07:36;;;;;;;2.13;2.00;;;;;;;;;;4982416;28;20133;-65
2021/07/29 07:10:01;;;;;;;2.47;2.28;;;;;;;;;;4982505;28;20022;-65
2021/07/29 07:12:26;;;;;;;3.13;2.30;;;;;;;;;;4983091;28;20019;-65
2021/07/29 07:14:51;;;;;;;3.08;2.45;;;;;;;;;;4982841;28;20321;-65
2021/07/29 07:17:17;;;;;;;2.30;2.20;;;;;;;;;;4967832;28;20025;-65
2021/07/29 07:19:43;;;;;;;3.00;2.65;;;;;;;;;;4986210;28;20030;-65
2021/07/29 07:22:08;;;;;;;3.20;3.00;;;;;;;;;;4981544;28;20038;-65
2021/07/29 07:24:34;;;;;;;3.00;2.80;;;;;;;;;;4982006;28;20027;-65
2021/07/29 07:27:00;;;;;;;2.97;2.78;;;;;;;;;;4983810;28;20125;-65
2021/07/29 07:29:25;;;;;;;2.42;2.33;;;;;;;;;;4982572;28;20027;-65
2021/07/29 07:31:50;;;;;;;2.97;2.78;;;;;;;;;;4982570;28;20058;-65
2021/07/29 07:34:15;;;;;;;5.35;2.80;;;;;;;;;;4982266;28;20022;-65
2021/07/29 07:36:41;;;;;;;3.60;2.97;;;;;;;;;;4984964;28;20308;-65
2021/07/29 07:39:07;;;;;;;2.83;2.63;;;;;;;;;;4983412;28;20026;-65
2021/07/29 07:41:33;;;;;;;2.85;2.55;;;;;;;;;;4984807;28;20035;-65
2021/07/29 07:43:58;;;;;;;3.35;3.05;;;;;;;;;;4983589;28;20094;-65
2021/07/29 07:46:23;;;;;;;3.25;3.05;;;;;;;;;;4983183;28;20037;-66
2021/07/29 07:48:49;;;;;;;3.30;3.10;;;;;;;;;;4983890;28;20033;-65
2021/07/29 07:51:14;;;;;;;3.45;3.15;;;;;;;;;;4983637;28;20022;-65
2021/07/29 07:53:39;;;;;;;2.90;2.70;;;;;;;;;;4980871;28;20023;-64
2021/07/29 07:56:05;;;;;;;2.63;2.47;;;;;;;;;;4981591;28;20125;-65
2021/07/29 07:58:30;;;;;;;3.10;2.90;;;;;;;;;;4981569;28;20164;-64
2021/07/29 08:00:56;;;;;;;3.65;3.22;;;;;;;;;;4981827;28;20073;-64
2021/07/29 08:03:21;;;;;;;3.25;2.95;;;;;;;;;;4980027;28;20022;-65
2021/07/29 08:05:46;;;;;;;3.30;3.10;;;;;;;;;;4980725;28;20022;-64
2021/07/29 08:08:11;;;;;;;3.40;3.15;;;;;;;;;;4981212;28;20307;-65
2021/07/29 08:10:37;;;;;;;3.25;3.05;;;;;;;;;;4981841;28;20034;-64
2021/07/29 08:13:03;;;;;;;3.75;3.45;;;;;;;;;;4980694;28;20365;-64
2021/07/29 08:15:28;;;;;;;4.32;3.00;;;;;;;;;;4979093;28;20023;-64
2021/07/29 08:17:54;;;;;;;3.47;3.28;;;;;;;;;;4963823;28;20026;-65
2021/07/29 08:20:22;;;;;;;3.38;3.15;;;;;;;;;;4984543;28;20393;-64
2021/07/29 08:22:47;;;;;;;3.13;2.92;;;;;;;;;;4982241;28;20022;-65
2021/07/29 08:25:16;;;;;;;3.33;3.03;;;;;;;;;;4981605;28;20019;-64
2021/07/29 08:27:42;;;;;;;3.78;3.47;;;;;;;;;;4983978;28;20129;-65
2021/07/29 08:30:07;;;;;;;3.33;3.13;;;;;;;;;;4965511;28;20122;-65
2021/07/29 08:32:34;;;;;;;4.00;3.70;;;;;;;;;;4983605;28;20279;-65
2021/07/29 08:34:59;;;;;;;3.25;3.05;;;;;;;;;;4984226;28;20023;-65
2021/07/29 08:37:25;;;;;;;3.28;2.97;;;;;;;;;;4983744;28;20129;-65
2021/07/29 08:39:50;;;;;;;2.92;2.72;;;;;;;;;;4983018;28;20027;-65
2021/07/29 08:42:16;;;;;;;4.07;3.78;;;;;;;;;;4982493;28;20026;-66
2021/07/29 08:44:41;;;;;;;3.88;3.53;;;;;;;;;;4982039;28;20447;-64
2021/07/29 08:47:09;;;;;;;3.97;3.67;;;;;;;;;;4982794;28;20026;-64
2021/07/29 08:49:36;;;;;;;3.92;3.58;;;;;;;;;;4978370;28;20022;-64
2021/07/29 08:52:01;;;;;;;4.20;3.90;;;;;;;;;;4978313;28;20035;-64
2021/07/29 08:54:26;;;;;;;4.68;4.38;;;;;;;;;;4978285;28;20466;-64
2021/07/29 08:56:52;;;;;;;3.65;3.35;;;;;;;;;;4980388;28;20027;-64
2021/07/29 08:59:17;;;;;;;4.00;3.60;;;;;;;;;;4981701;28;20340;-65
2021/07/29 09:01:49;;;;;;;5.07;4.55;;;;;;;;;;4965883;28;20034;-64
2021/07/29 09:04:15;;;;;;;4.40;4.15;;;;;;;;;;4981008;28;20483;-64
2021/07/29 09:06:57;;;;;;;4.10;3.90;;;;;;;;;;4981668;28;20109;-64
2021/07/29 09:09:42;;;;;;;4.75;4.32;;;;;;;;;;4981822;28;20037;-64
2021/07/29 09:12:14;;;;;;;4.32;3.85;;;;;;;;;;4979597;28;20356;-65
2021/07/29 09:14:40;;;;;;;4.78;3.97;;;;;;;;;;4983100;28;20030;-64
2021/07/29 09:17:07;;;;;;;3.95;3.75;;;;;;;;;;4981368;28;20029;-64
2021/07/29 09:20:01;;;;;;;4.45;4.05;;;;;;;;;;4979948;28;20037;-65
2021/07/29 09:22:30;;;;;;;4.03;3.72;;;;;;;;;;4963923;28;20042;-64
2021/07/29 09:25:08;;;;;;;4.40;4.10;;;;;;;;;;4978176;28;20263;-64
2021/07/29 09:27:37;;;;;;;4.40;4.10;;;;;;;;;;4979462;28;20041;-64
2021/07/29 09:30:17;;;;;;;4.00;3.80;;;;;;;;;;4962330;28;20112;-64
2021/07/29 09:32:53;;;;;;;4.50;4.20;;;;;;;;;;4981721;28;20034;-64
2021/07/29 09:35:38;;;;;;;3.97;3.78;;;;;;;;;;4981516;28;20073;-64
2021/07/29 09:38:03;;;;;;;;;;;;;;;;;;4981196;28;20034;-65
2021/07/29 09:41:04;;;;;;;4.65;4.35;;;;;;;;;;4963114;28;19910;-64
2021/07/29 09:43:38;;;;;;;5.63;5.13;;;;;;;;;;4899121;29;20055;-64
2021/07/29 09:46:14;;;;;;;6.38;5.82;;;;;;;;;;4911201;29;20131;-64
2021/07/29 09:48:39;;;;;;;4.80;4.32;;;;;;;;;;4910177;29;20087;-64
2021/07/29 09:51:04;;;;;;;4.70;4.40;;;;;;;;;;4911238;29;20105;-64
2021/07/29 09:53:33;;;;;;;4.60;4.30;;;;;;;;;;4906940;29;20089;-64
2021/07/29 09:55:59;;;;;;;4.70;4.40;;;;;;;;;;4909924;29;20276;-64
2021/07/29 09:58:24;;;;;;;5.32;4.93;;;;;;;;;;4911800;29;20052;-64
2021/07/29 10:00:50;;;;;;;4.40;4.10;;;;;;;;;;4910600;29;20044;-64
2021/07/29 10:03:15;;;;;;;4.80;4.47;;;;;;;;;;4911079;29;20059;-65
2021/07/29 10:05:52;;;;;;;4.53;4.22;;;;;;;;;;4913834;29;20291;-64
2021/07/29 10:08:26;;;;;;;4.70;4.40;;;;;;;;;;4912065;29;20036;-64
2021/07/29 10:10:52;;;;;;;5.18;4.72;;;;;;;;;;4914007;29;20434;-64
2021/07/29 10:13:17;;;;;;;5.07;4.65;;;;;;;;;;4915299;29;20040;-65
2021/07/29 10:15:43;;;;;;;4.80;4.40;;;;;;;;;;4910236;29;20054;-65
2021/07/29 10:18:12;;;;;;;5.40;4.90;;;;;;;;;;4967022;28;20031;-64
2021/07/29 10:20:38;;;;;;;5.60;5.18;;;;;;;;;;4982680;28;20030;-64
2021/07/29 10:23:12;;;;;;;5.47;5.07;;;;;;;;;;4985300;28;20134;-64
2021/07/29 10:25:53;;;;;;;5.78;5.38;;;;;;;;;;4984619;28;20050;-64
2021/07/29 10:28:22;;;;;;;5.30;4.95;;;;;;;;;;4985004;28;20309;-65
2021/07/29 10:30:52;;;;;;;5.20;4.82;;;;;;;;;;4983883;28;20023;-65
2021/07/29 10:33:18;;;;;;;5.75;5.22;;;;;;;;;;4985751;28;20038;-64
2021/07/29 10:35:43;;;;;;;5.03;4.72;;;;;;;;;;4986060;28;20026;-64
2021/07/29 10:38:08;;;;;;;5.05;4.72;;;;;;;;;;4986772;28;20037;-64
2021/07/29 10:40:35;;;;;;;5.40;5.00;;;;;;;;;;4983712;28;20027;-64
2021/07/29 10:43:19;;;;;;;5.20;4.88;;;;;;;;;;4984195;28;20045;-64
2021/07/29 10:45:48;;;;;;;5.35;4.95;;;;;;;;;;4985718;28;20314;-65
2021/07/29 10:48:32;;;;;;;5.38;5.07;;;;;;;;;;4983139;28;20072;-65
2021/07/29 10:51:16;;;;;;;5.35;5.03;;;;;;;;;;4983473;28;20110;-65
2021/07/29 10:53:42;;;;;;;5.32;5.03;;;;;;;;;;4968769;28;20121;-65
2021/07/29 10:56:08;;;;;;;4.88;4.57;;;;;;;;;;4984465;28;20090;-65
2021/07/29 10:58:42;;;;;;;5.10;4.60;;;;;;;;;;4984211;28;20051;-65
2021/07/29 11:01:08;;;;;;;;;;;;;;;;;;4984274;28;20058;-65
2021/07/29 11:03:34;;;;;;;4.80;4.50;;;;;;;;;;4983035;28;20004;-65
2021/07/29 11:06:13;;;;;;;5.07;4.75;;;;;;;;;;4983393;28;20109;-64
2021/07/29 11:08:38;;;;;;;5.07;4.75;;;;;;;;;;4983471;28;20031;-65
2021/07/29 11:11:04;;;;;;;5.55;5.25;;;;;;;;;;4967661;28;20034;-65
2021/07/29 11:13:29;;;;;;;5.40;5.10;;;;;;;;;;4984430;28;20505;-65
2021/07/29 11:16:00;;;;;;;4.97;4.68;;;;;;;;;;4947724;28;20101;-65
2021/07/29 11:18:26;;;;;;;5.40;5.00;;;;;;;;;;4983793;28;20210;-67
2021/07/29 11:20:51;;;;;;;5.20;4.82;;;;;;;;;;4981091;28;20103;-66
2021/07/29 11:23:32;;;;;;;5.38;5.07;;;;;;;;;;4974790;28;20046;-66
2021/07/29 11:25:59;;;;;;;5.45;5.05;;;;;;;;;;4984881;28;20674;-65
2021/07/29 11:28:24;;;;;;;6.13;5.72;;;;;;;;;;4982674;28;20054;-66
2021/07/29 11:30:49;;;;;;;5.78;5.25;;;;;;;;;;4982324;28;20057;-65
2021/07/29 11:33:21;;;;;;;6.40;6.00;;;;;;;;;;4983343;28;20026;-65
2021/07/29 11:35:47;;;;;;;4.85;4.55;;;;;;;;;;4984769;28;20027;-65
2021/07/29 11:38:17;;;;;;;6.10;5.70;;;;;;;;;;4964750;28;20399;-65
2021/07/29 11:40:43;;;;;;;6.18;5.78;;;;;;;;;;4985043;28;20370;-65
2021/07/29 11:43:21;;;;;;;5.85;5.50;;;;;;;;;;4970619;28;20030;-65
2021/07/29 11:45:46;;;;;;;5.47;5.18;;;;;;;;;;4982826;28;20621;-65
2021/07/29 11:48:22;;;;;;;5.72;5.32;;;;;;;;;;4983177;28;20042;-66
2021/07/29 11:50:47;;;;;;;5.88;5.47;;;;;;;;;;4983408;28;20143;-65
2021/07/29 11:53:13;;;;;;;6.28;5.78;;;;;;;;;;4984262;28;20046;-65
2021/07/29 11:55:38;;;;;;;6.25;5.75;;;;;;;;;;4981254;28;20015;-65
2021/07/29 11:58:10;;;;;;;6.35;5.85;;;;;;;;;;4966666;28;20101;-65
2021/07/29 12:00:36;;;;;;;5.80;5.40;;;;;;;;;;4982958;28;20276;-65
2021/07/29 12:03:01;;;;;;;5.80;5.40;;;;;;;;;;4984583;28;20090;-65
2021/07/29 12:05:27;;;;;;;6.00;5.47;;;;;;;;;;4982997;28;20749;-65
2021/07/29 12:07:53;;;;;;;5.88;5.47;;;;;;;;;;4984034;28;20422;-65
2021/07/29 12:10:19;;;;;;;5.72;5.32;;;;;;;;;;4983108;28;20026;-65
2021/07/29 12:12:45;;;;;;;6.32;5.82;;;;;;;;;;4982521;28;20023;-64
2021/07/29 12:15:13;;;;;;;5.65;5.22;;;;;;;;;;4981935;28;20049;-65
2021/07/29 12:17:38;;;;;;;5.93;5.47;;;;;;;;;;4963957;28;20578;-64
2021/07/29 12:20:05;;;;;;;5.72;5.32;;;;;;;;;;4983381;28;20038;-64
2021/07/29 12:22:30;;;;;;;6.50;6.07;;;;;;;;;;4982962;28;20110;-65
2021/07/29 12:24:58;;;;;;;5.50;5.20;;;;;;;;;;4982734;28;20117;-64
2021/07/29 12:27:23;;;;;;;6.63;6.13;;;;;;;;;;4980217;28;20382;-64
2021/07/29 12:29:49;;;;;;;6.55;5.82;;;;;;;;;;4968563;28;20026;-64
2021/07/29 12:32:18;;;;;;;5.93;5.53;;;;;;;;;;4981544;28;20026;-64
2021/07/29 12:34:43;;;;;;;6.00;5.70;;;;;;;;;;4982162;28;20363;-64
2021/07/29 12:37:09;;;;;;;6.30;5.80;;;;;;;;;;4982166;28;20058;-65
2021/07/29 12:39:34;;;;;;;5.88;5.57;;;;;;;;;;4984088;28;20073;-64
2021/07/29 12:41:59;;;;;;;5.90;5.60;;;;;;;;;;4983335;28;20125;-64
2021/07/29 12:44:24;;;;;;;6.25;5.65;;;;;;;;;;4983419;28;20029;-64
2021/07/29 12:46:50;;;;;;;6.35;6.00;;;;;;;;;;4981311;28;20383;-64
2021/07/29 12:49:16;;;;;;;6.90;6.50;;;;;;;;;;4981043;28;20047;-64
2021/07/29 12:51:51;;;;;;;6.32;5.97;;;;;;;;;;4983066;28;20010;-64
2021/07/29 12:54:18;;;;;;;6.20;5.60;;;;;;;;;;4982574;28;20391;-64
2021/07/29 12:56:44;;;;;;;6.22;5.82;;;;;;;;;;4981559;28;20169;-65
2021/07/29 12:59:09;;;;;;;6.30;5.90;;;;;;;;;;4983172;28;20058;-65
2021/07/29 13:01:35;;;;;;;6.07;5.70;;;;;;;;;;4967338;28;20022;-65
2021/07/29 13:04:00;;;;;;;6.32;5.70;;;;;;;;;;4984128;28;20456;-65
2021/07/29 13:06:25;;;;;;;5.82;5.53;;;;;;;;;;4969219;28;20031;-65
2021/07/29 13:08:53;;;;;;;5.85;5.55;;;;;;;;;;4980783;28;20061;-64
2021/07/29 13:11:19;;;;;;;6.40;6.00;;;;;;;;;;4980970;28;20280;-65
2021/07/29 13:13:45;;;;;;;5.60;5.20;;;;;;;;;;4980010;28;20077;-65
2021/07/29 13:16:10;;;;;;;6.00;5.63;;;;;;;;;;4979666;28;20042;-65
2021/07/29 13:18:36;;;;;;;5.88;5.47;;;;;;;;;;4981227;28;20400;-65
2021/07/29 13:21:02;;;;;;;6.68;6.25;;;;;;;;;;4979901;28;20077;-64
2021/07/29 13:23:27;;;;;;;6.70;6.20;;;;;;;;;;4982054;28;20604;-65
2021/07/29 13:25:53;;;;;;;6.43;5.97;;;;;;;;;;4980566;28;20027;-65
2021/07/29 13:28:20;;;;;;;6.38;5.93;;;;;;;;;;4979628;28;20049;-65
2021/07/29 13:30:45;;;;;;;5.72;5.43;;;;;;;;;;4980724;28;20022;-65
2021/07/29 13:33:11;;;;;;;6.28;5.88;;;;;;;;;;4981655;28;20073;-65
2021/07/29 13:35:36;;;;;;;6.38;5.97;;;;;;;;;;4970286;28;20415;-65
2021/07/29 13:38:02;;;;;;;5.35;5.05;;;;;;;;;;4982441;28;20022;-65
2021/07/29 13:40:28;;;;;;;5.72;5.22;;;;;;;;;;4980278;28;20081;-64
2021/07/29 13:42:53;;;;;;;6.22;5.82;;;;;;;;;;4984975;28;20117;-64
2021/07/29 13:45:19;;;;;;;6.20;5.63;;;;;;;;;;4986318;28;20030;-64
2021/07/29 13:47:54;;;;;;;6.30;5.70;;;;;;;;;;4985727;28;20307;-64
2021/07/29 13:50:20;;;;;;;5.68;5.28;;;;;;;;;;4985319;28;20257;-65
2021/07/29 13:52:46;;;;;;;6.03;5.68;;;;;;;;;;4987010;28;20027;-63
2021/07/29 13:55:12;;;;;;;5.53;5.22;;;;;;;;;;4986503;28;20077;-64
2021/07/29 13:57:38;;;;;;;6.40;6.07;;;;;;;;;;4984647;28;20061;-64
2021/07/29 14:00:04;;;;;;;6.18;5.43;;;;;;;;;;4985623;28;20031;-64
2021/07/29 14:02:29;;;;;;;6.32;5.93;;;;;;;;;;4984861;28;20090;-64
2021/07/29 14:04:56;;;;;;;6.30;5.53;;;;;;;;;;4982938;28;20424;-64
2021/07/29 14:07:22;;;;;;;6.05;5.55;;;;;;;;;;4982742;28;20280;-64
2021/07/29 14:09:47;;;;;;;5.40;5.10;;;;;;;;;;4986965;28;20018;-64
2021/07/29 14:12:12;;;;;;;6.38;5.78;;;;;;;;;;4985255;28;20101;-64
2021/07/29 14:14:38;;;;;;;6.50;5.90;;;;;;;;;;4985704;28;20014;-65
2021/07/29 14:17:12;;;;;;;8.13;6.07;;;;;;;;;;4983897;28;20027;-65
2021/07/29 14:19:51;;;;;;;;;;;;;;;;;;4986585;28;20439;-64
2021/07/29 14:24:42;;;;;;;5.95;5.57;;;;;;;;;;4986641;28;20049;-64
2021/07/29 14:27:07;;;;;;;6.60;6.10;;;;;;;;;;4984044;28;20042;-64
2021/07/29 14:29:32;;;;;;;6.00;5.60;;;;;;;;;;4982963;28;20034;-64
2021/07/29 14:31:58;;;;;;;6.15;5.65;;;;;;;;;;4983655;28;20030;-64
2021/07/29 14:34:23;;;;;;;5.72;5.43;;;;;;;;;;4983276;28;20058;-64
2021/07/29 14:36:48;;;;;;;6.38;5.80;;;;;;;;;;4984365;28;20022;-64
2021/07/29 14:39:13;;;;;;;10.30;7.05;;;;;;;;;;4982006;28;20030;-64
2021/07/29 14:41:38;;;;;;;7.45;6.80;;;;;;;;;;4969060;28;20118;-64